createdAt,value
2022-11-21T00:04:38.210Z,66.75
2022-11-21T00:09:40.388Z,67.16
2022-11-21T00:14:42.843Z,66.57
2022-11-21T00:19:45.349Z,65.80
2022-11-21T00:24:52.975Z,64.00
2022-11-21T00:29:56.319Z,63.56
2022-11-21T00:34:58.587Z,62.94
2022-11-21T00:40:00.944Z,62.20
2022-11-21T00:45:04.214Z,61.72
2022-11-21T00:50:07.097Z,62.08
2022-11-21T00:55:09.835Z,61.28
2022-11-21T01:00:12.958Z,60.95
2022-11-21T01:05:15.268Z,60.27
2022-11-21T01:10:17.550Z,60.51
2022-11-21T01:15:19.778Z,61.47
2022-11-21T01:20:22.176Z,61.08
2022-11-21T01:25:24.361Z,61.33
2022-11-21T01:30:26.574Z,61.91
2022-11-21T01:35:28.979Z,61.89
2022-11-21T01:40:39.119Z,61.65
2022-11-21T01:45:53.357Z,61.35
2022-11-21T01:50:58.646Z,60.51
2022-11-21T01:56:02.067Z,60.76
2022-11-21T02:01:04.393Z,60.26
2022-11-21T02:06:09.459Z,60.37
2022-11-21T02:11:36.279Z,61.03
2022-11-21T02:16:39.524Z,61.29
2022-11-21T02:21:54.659Z,62.00
2022-11-21T02:26:57.664Z,62.15
2022-11-21T02:32:03.298Z,62.33
2022-11-21T02:37:05.855Z,62.34
2022-11-21T02:42:16.976Z,62.24
2022-11-21T02:47:21.280Z,62.06
2022-11-21T02:52:24.032Z,61.66
2022-11-21T02:57:26.402Z,61.46
2022-11-21T03:02:28.729Z,61.16
2022-11-21T03:07:31.147Z,60.17
2022-11-21T03:12:33.349Z,60.01
2022-11-21T03:17:35.843Z,60.13
2022-11-21T03:22:38.059Z,60.41
2022-11-21T03:27:40.384Z,60.64
2022-11-21T03:32:42.761Z,60.82
2022-11-21T03:37:45.188Z,60.62
2022-11-21T03:42:47.451Z,60.78
2022-11-21T03:47:49.800Z,61.10
2022-11-21T03:52:52.149Z,61.04
2022-11-21T03:57:54.398Z,61.51
2022-11-21T04:02:56.593Z,61.85
2022-11-21T04:07:58.903Z,62.28
2022-11-21T04:13:01.108Z,62.43
2022-11-21T04:18:03.481Z,62.88
2022-11-21T04:23:06.281Z,63.19
2022-11-21T04:28:13.354Z,63.46
2022-11-21T04:33:16.759Z,63.77
2022-11-21T04:38:19.068Z,63.92
2022-11-21T04:43:21.314Z,64.05
2022-11-21T04:48:23.487Z,64.09
2022-11-21T04:53:25.736Z,64.27
2022-11-21T04:58:28.003Z,64.21
2022-11-21T05:03:30.259Z,64.75
2022-11-21T05:08:32.441Z,65.60
2022-11-21T05:13:34.773Z,66.02
2022-11-21T05:18:37.029Z,65.41
2022-11-21T05:23:39.317Z,65.10
2022-11-21T05:28:48.984Z,65.10
2022-11-21T05:33:51.298Z,64.64
2022-11-21T05:38:53.525Z,64.94
2022-11-21T05:43:56.085Z,64.97
2022-11-21T05:48:58.463Z,65.20
2022-11-21T05:54:02.686Z,65.15
2022-11-21T05:59:04.882Z,65.64
2022-11-21T06:04:08.153Z,65.92
2022-11-21T06:09:10.409Z,67.15
2022-11-21T06:14:12.759Z,66.78
2022-11-21T06:19:15.513Z,66.84
2022-11-21T06:24:26.976Z,66.96
2022-11-21T06:29:29.426Z,67.15
2022-11-21T06:34:31.887Z,67.05
2022-11-21T06:39:34.206Z,67.18
2022-11-21T06:44:36.517Z,67.72
2022-11-21T06:49:38.927Z,67.13
2022-11-21T06:54:41.238Z,66.76
2022-11-21T06:59:43.997Z,66.26
2022-11-21T07:04:46.382Z,65.93
2022-11-21T07:09:48.949Z,65.34
2022-11-21T07:14:51.385Z,64.71
2022-11-21T07:19:53.674Z,64.38
2022-11-21T07:24:56.109Z,64.50
2022-11-21T07:29:59.028Z,64.13
2022-11-21T07:35:01.273Z,64.08
2022-11-21T07:40:03.532Z,63.77
2022-11-21T07:45:06.214Z,63.64
2022-11-21T07:50:11.047Z,63.40
2022-11-21T07:55:13.402Z,63.68
2022-11-21T08:00:16.449Z,63.55
2022-11-21T08:05:18.862Z,63.66
2022-11-21T08:10:21.622Z,63.51
2022-11-21T08:15:23.877Z,63.11
2022-11-21T08:20:26.612Z,63.29
2022-11-21T08:25:28.994Z,64.04
2022-11-21T08:30:31.847Z,63.98
2022-11-21T08:35:37.301Z,63.34
2022-11-21T08:40:41.037Z,63.03
2022-11-21T08:45:43.522Z,62.39
2022-11-21T08:50:46.068Z,61.95
2022-11-21T08:55:48.297Z,61.63
2022-11-21T09:00:50.663Z,61.54
2022-11-21T09:05:53.065Z,61.73
2022-11-21T09:10:55.281Z,61.90
2022-11-21T09:16:20.583Z,61.55
2022-11-21T09:21:23.277Z,60.90
2022-11-21T09:26:25.621Z,59.13
2022-11-21T09:31:28.028Z,58.05
2022-11-21T09:36:30.275Z,57.55
2022-11-21T09:42:06.153Z,57.18
2022-11-21T09:47:23.628Z,56.76
2022-11-21T09:52:49.272Z,55.76
2022-11-21T09:57:51.866Z,54.53
2022-11-21T10:02:55.582Z,52.91
2022-11-21T10:08:05.937Z,53.93
2022-11-21T10:13:11.294Z,53.68
2022-11-21T10:19:01.475Z,52.39
2022-11-21T10:24:51.640Z,49.90
2022-11-21T10:30:02.854Z,49.18
2022-11-21T10:35:15.735Z,47.38
2022-11-21T10:40:27.200Z,47.68
2022-11-21T10:45:29.647Z,48.04
2022-11-21T10:50:47.621Z,48.12
2022-11-21T10:56:20.346Z,48.79
2022-11-21T11:01:24.261Z,48.27
2022-11-21T11:06:29.925Z,47.56
2022-11-21T11:11:32.564Z,48.42
2022-11-21T11:16:41.670Z,48.41
2022-11-21T11:21:46.329Z,46.34
2022-11-21T11:26:49.133Z,47.12
2022-11-21T11:31:57.153Z,47.13
2022-11-21T11:37:05.065Z,46.86
2022-11-21T11:42:54.194Z,47.80
2022-11-21T11:47:59.936Z,47.52
2022-11-21T11:53:11.061Z,46.71
2022-11-21T11:58:19.199Z,47.31
2022-11-21T12:03:30.997Z,48.39
2022-11-21T12:08:54.081Z,49.09
2022-11-21T12:13:57.969Z,49.14
2022-11-21T12:19:15.690Z,49.90
2022-11-21T12:24:21.392Z,51.64
2022-11-21T12:29:35.266Z,52.99
2022-11-21T12:35:06.071Z,54.41
2022-11-21T12:40:29.688Z,54.73
2022-11-21T12:45:40.732Z,55.21
2022-11-21T12:51:24.536Z,55.99
2022-11-21T12:57:05.231Z,54.47
2022-11-21T13:02:19.001Z,54.49
2022-11-21T13:07:23.184Z,52.22
2022-11-21T13:12:54.407Z,52.14
2022-11-21T13:18:23.659Z,51.95
2022-11-21T13:23:42.538Z,51.91
2022-11-21T13:28:47.488Z,52.51
2022-11-21T13:33:51.623Z,52.88
2022-11-21T13:38:54.448Z,53.69
2022-11-21T13:44:32.002Z,53.60
2022-11-21T13:49:40.452Z,51.48
2022-11-21T13:55:01.269Z,50.86
2022-11-21T14:00:30.528Z,50.22
2022-11-21T14:06:14.244Z,48.00
2022-11-21T14:11:50.156Z,46.56
2022-11-21T14:17:13.367Z,45.00
2022-11-21T14:22:34.614Z,42.49
2022-11-21T14:27:45.368Z,42.60
2022-11-21T14:32:53.877Z,42.92
2022-11-21T14:37:58.609Z,44.72
2022-11-21T14:43:01.742Z,46.50
2022-11-21T14:48:12.968Z,46.19
2022-11-21T14:53:15.213Z,47.02
2022-11-21T14:58:18.123Z,47.95
2022-11-21T15:03:24.343Z,47.92
2022-11-21T15:19:22.788Z,49.00
2022-11-21T15:24:33.005Z,49.17
2022-11-21T15:29:35.491Z,49.11
2022-11-21T15:34:37.874Z,48.75
2022-11-21T15:39:48.416Z,49.24
2022-11-21T15:45:19.822Z,50.76
2022-11-21T15:50:25.020Z,50.78
2022-11-21T15:55:31.966Z,51.31
2022-11-21T16:00:34.224Z,51.78
2022-11-21T16:05:36.727Z,51.77
2022-11-21T16:10:39.111Z,53.07
2022-11-21T16:15:41.640Z,53.53
2022-11-21T16:20:43.915Z,54.10
2022-11-21T16:25:55.882Z,55.16
2022-11-21T16:30:59.743Z,56.51
2022-11-21T16:36:02.225Z,56.16
2022-11-21T16:41:05.847Z,56.85
2022-11-21T16:46:09.950Z,56.13
2022-11-21T16:51:19.756Z,55.65
2022-11-21T16:56:22.146Z,55.21
2022-11-21T17:01:26.907Z,54.34
2022-11-21T17:06:30.846Z,54.02
2022-11-21T17:11:33.176Z,54.06
2022-11-21T17:16:36.105Z,53.53
2022-11-21T17:21:38.662Z,53.26
2022-11-21T17:26:41.234Z,52.92
2022-11-21T17:31:43.656Z,52.26
2022-11-21T17:36:45.875Z,51.16
2022-11-21T17:41:48.408Z,50.60
2022-11-21T17:46:50.916Z,49.63
2022-11-21T17:51:56.630Z,49.07
2022-11-21T17:57:00.624Z,47.74
2022-11-21T18:02:02.979Z,46.85
2022-11-21T18:07:07.436Z,46.92
2022-11-21T18:12:09.833Z,46.48
2022-11-21T18:17:12.177Z,47.23
2022-11-21T18:22:14.644Z,47.82
2022-11-21T18:27:16.797Z,47.99
2022-11-21T18:32:19.014Z,48.42
2022-11-21T18:37:21.546Z,48.85
2022-11-21T18:42:24.032Z,49.09
2022-11-21T18:47:27.924Z,48.93
2022-11-21T18:52:33.922Z,49.29
2022-11-21T18:57:36.162Z,49.55
2022-11-21T19:02:38.653Z,49.16
2022-11-21T19:07:40.977Z,49.12
2022-11-21T19:12:43.209Z,49.17
2022-11-21T19:17:45.428Z,48.87
2022-11-21T19:22:47.719Z,48.74
2022-11-21T19:27:50.035Z,48.46
2022-11-21T19:32:52.417Z,48.18
2022-11-21T19:37:54.585Z,46.23
2022-11-21T19:42:56.782Z,45.64
2022-11-21T19:47:59.730Z,44.49
2022-11-21T19:53:02.010Z,44.41
2022-11-21T19:58:04.258Z,44.11
2022-11-21T20:03:06.520Z,44.55
2022-11-21T20:08:17.220Z,44.73
2022-11-21T20:13:20.205Z,45.49
2022-11-21T20:18:22.497Z,45.45
2022-11-21T20:23:24.958Z,45.53
2022-11-21T20:28:27.346Z,46.28
2022-11-21T20:33:29.752Z,46.73
2022-11-21T20:38:32.112Z,46.91
2022-11-21T20:44:14.431Z,46.59
2022-11-21T20:48:57.178Z,47.18
2022-11-21T20:54:03.300Z,46.85
2022-11-21T20:59:06.348Z,46.59
2022-11-21T21:04:09.990Z,46.19
2022-11-21T21:09:12.288Z,46.63
2022-11-21T21:14:14.488Z,46.67
2022-11-21T21:19:20.765Z,46.62
2022-11-21T21:24:23.161Z,46.95
2022-11-21T21:29:25.423Z,47.29
2022-11-21T21:34:28.134Z,47.42
2022-11-21T21:39:30.875Z,47.80
2022-11-21T21:44:33.853Z,48.04
2022-11-21T21:49:36.316Z,47.80
2022-11-21T21:54:39.552Z,47.71
2022-11-21T21:59:41.935Z,47.66
2022-11-21T22:04:46.978Z,47.39
2022-11-21T22:09:52.812Z,46.83
2022-11-21T22:14:55.162Z,47.65
2022-11-21T22:19:57.374Z,47.51
2022-11-21T22:24:59.805Z,47.66
2022-11-21T22:30:02.236Z,47.69
2022-11-21T22:35:04.612Z,47.42
2022-11-21T22:40:07.232Z,47.34
2022-11-21T22:45:10.635Z,48.24
2022-11-21T22:50:13.111Z,48.22
2022-11-21T22:55:15.550Z,48.15
2022-11-21T23:00:18.351Z,48.31
2022-11-21T23:05:20.683Z,48.14
2022-11-21T23:10:22.909Z,48.00
2022-11-21T23:15:25.569Z,48.31
2022-11-21T23:20:27.940Z,49.38
2022-11-21T23:25:30.153Z,48.66
2022-11-21T23:30:32.522Z,47.97
2022-11-21T23:35:34.712Z,47.69
2022-11-21T23:40:37.147Z,47.22
2022-11-21T23:45:39.440Z,47.62
2022-11-21T23:50:41.877Z,47.92
2022-11-21T23:55:45.044Z,48.09
